createdAt,value
2022-11-05T00:00:20.273Z,8.80
2022-11-05T00:05:20.215Z,8.00
2022-11-05T00:10:20.178Z,8.10
2022-11-05T00:15:20.128Z,7.90
2022-11-05T00:20:20.113Z,8.50
2022-11-05T00:25:19.998Z,8.90
2022-11-05T05:00:32.082Z,8.10
2022-11-05T05:05:31.923Z,7.70
2022-11-05T05:10:31.854Z,8.00
2022-11-05T05:15:38.873Z,7.50
2022-11-05T05:20:31.759Z,8.00
2022-11-05T05:25:31.702Z,7.50
2022-11-05T05:30:31.645Z,7.70
2022-11-05T05:35:31.624Z,8.00
2022-11-05T05:40:31.556Z,8.40
2022-11-05T05:45:31.474Z,7.70
2022-11-05T05:50:31.432Z,8.20
2022-11-05T05:55:31.401Z,8.30
2022-11-05T06:00:31.320Z,8.60
2022-11-05T06:05:31.267Z,8.80
2022-11-05T06:10:31.258Z,9.20
2022-11-05T06:15:35.652Z,9.50
2022-11-05T06:20:31.090Z,8.90
2022-11-05T06:25:31.103Z,10.10
2022-11-05T06:30:31.012Z,10.40
2022-11-05T06:35:30.959Z,10.10
2022-11-05T06:40:30.883Z,10.10
2022-11-05T06:45:30.828Z,10.40
2022-11-05T06:50:30.779Z,10.40
2022-11-05T06:55:30.726Z,10.30
2022-11-05T07:00:30.807Z,10.60
2022-11-05T07:05:30.623Z,11.20
2022-11-05T07:10:30.563Z,11.10
2022-11-05T07:15:30.719Z,11.20
2022-11-05T07:20:33.848Z,10.30
2022-11-05T07:25:30.396Z,10.90
2022-11-05T07:30:30.327Z,10.90
2022-11-05T07:35:30.349Z,10.40
2022-11-05T07:40:30.237Z,10.50
2022-11-05T07:45:30.187Z,10.40
2022-11-05T07:50:30.131Z,10.80
2022-11-05T07:55:30.096Z,10.30
2022-11-05T08:00:30.022Z,10.80
2022-11-05T08:05:29.970Z,10.70
2022-11-05T08:10:29.916Z,10.00
2022-11-05T08:15:29.884Z,9.80
2022-11-05T08:20:29.811Z,10.00
2022-11-05T08:25:29.758Z,10.00
2022-11-05T08:30:29.704Z,11.20
2022-11-05T08:35:29.752Z,10.10
2022-11-05T08:40:29.590Z,10.40
2022-11-05T08:45:29.538Z,10.20
2022-11-05T08:50:29.485Z,9.90
2022-11-05T08:55:29.445Z,10.80
2022-11-05T09:00:29.377Z,10.20
2022-11-05T09:05:29.324Z,9.60
2022-11-05T09:10:29.284Z,9.90
2022-11-05T09:15:29.237Z,9.10
2022-11-05T09:20:29.165Z,8.70
2022-11-05T09:25:29.108Z,9.50
2022-11-05T09:30:29.076Z,8.80
2022-11-05T09:35:29.019Z,8.70
2022-11-05T09:40:28.945Z,8.70
2022-11-05T09:45:28.898Z,8.90
2022-11-05T09:50:28.841Z,8.20
2022-11-05T09:55:28.805Z,9.30
2022-11-05T10:00:28.734Z,8.40
2022-11-05T10:05:28.772Z,8.70
2022-11-05T10:10:28.628Z,9.30
2022-11-05T10:15:28.591Z,8.70
2022-11-05T10:20:28.517Z,8.60
2022-11-05T10:25:28.466Z,8.40
2022-11-05T10:30:28.413Z,8.80
2022-11-05T10:35:28.412Z,8.10
2022-11-05T10:40:28.309Z,8.30
2022-11-05T10:45:28.248Z,7.90
2022-11-05T10:50:28.204Z,8.20
2022-11-05T10:55:28.163Z,7.80
2022-11-05T11:00:28.091Z,8.40
2022-11-05T11:05:28.034Z,8.10
2022-11-05T11:10:27.984Z,7.80
2022-11-05T11:15:34.982Z,7.30
2022-11-05T11:20:27.879Z,6.70
2022-11-05T11:25:27.820Z,6.80
2022-11-05T11:30:27.773Z,6.30
2022-11-05T11:35:27.734Z,6.50
2022-11-05T11:40:27.662Z,5.60
2022-11-05T11:45:27.673Z,5.40
2022-11-05T11:50:27.552Z,5.00
2022-11-05T11:55:27.671Z,4.40
2022-11-05T12:00:27.445Z,4.00
2022-11-05T12:05:27.391Z,3.10
2022-11-05T12:10:27.339Z,3.00
2022-11-05T12:15:27.300Z,2.70
2022-11-05T12:20:27.230Z,2.90
2022-11-05T12:25:27.173Z,3.20
2022-11-05T12:30:27.120Z,2.50
2022-11-05T12:35:27.081Z,2.70
2022-11-05T12:40:27.014Z,2.70
2022-11-05T12:45:26.957Z,3.40
2022-11-05T12:50:26.904Z,4.20
2022-11-05T12:55:26.868Z,4.10
2022-11-05T13:00:26.793Z,4.90
2022-11-05T13:05:26.775Z,10.30
2022-11-05T13:10:26.683Z,4.20
2022-11-05T13:15:26.646Z,3.90
2022-11-05T13:20:26.581Z,4.60
2022-11-05T13:25:26.541Z,3.70
2022-11-05T13:30:26.491Z,3.70
2022-11-05T13:35:26.435Z,3.30
2022-11-05T13:40:26.366Z,3.00
2022-11-05T13:45:26.307Z,3.30
2022-11-05T13:50:26.257Z,3.40
2022-11-05T13:55:26.220Z,2.50
2022-11-05T14:00:26.187Z,2.80
2022-11-05T14:05:26.077Z,2.40
2022-11-05T14:10:26.039Z,2.80
2022-11-05T14:15:26.008Z,3.40
2022-11-05T14:20:25.919Z,2.20
2022-11-05T14:25:25.876Z,2.10
2022-11-05T14:30:25.833Z,1.90
2022-11-05T14:35:25.778Z,2.00
2022-11-05T14:40:25.717Z,1.90
2022-11-05T14:45:25.667Z,2.00
2022-11-05T14:50:25.594Z,1.90
2022-11-05T14:55:25.668Z,1.60
2022-11-05T15:00:25.504Z,1.70
2022-11-05T15:05:25.442Z,1.90
2022-11-05T15:10:25.387Z,1.60
2022-11-05T15:15:25.483Z,1.50
2022-11-05T15:20:25.288Z,1.50
2022-11-05T15:25:25.231Z,1.70
2022-11-05T15:30:25.180Z,1.50
2022-11-05T15:35:25.235Z,2.10
2022-11-05T15:40:25.082Z,1.80
2022-11-05T15:45:25.028Z,1.80
2022-11-05T15:50:25.099Z,2.10
2022-11-05T15:55:24.955Z,2.10
2022-11-05T16:00:24.866Z,2.20
2022-11-05T16:05:24.806Z,2.60
2022-11-05T16:10:24.751Z,2.90
2022-11-05T16:15:24.723Z,2.60
2022-11-05T16:20:24.652Z,2.80
2022-11-05T16:25:24.594Z,2.80
2022-11-05T16:30:24.541Z,3.00
2022-11-05T16:35:24.651Z,2.80
2022-11-05T16:40:24.438Z,2.20
2022-11-05T16:45:24.386Z,2.40
2022-11-05T16:50:24.427Z,2.50
2022-11-05T16:55:24.518Z,2.60
2022-11-05T17:00:24.219Z,2.50
2022-11-05T17:05:24.178Z,3.10
2022-11-05T17:10:24.122Z,2.90
2022-11-05T17:15:31.207Z,3.10
2022-11-05T17:20:24.012Z,2.70
2022-11-05T17:25:23.958Z,2.90
2022-11-05T17:30:23.910Z,3.00
2022-11-05T17:35:23.870Z,2.50
2022-11-05T17:40:23.800Z,3.10
2022-11-05T17:45:23.746Z,2.90
2022-11-05T17:50:23.693Z,2.80
2022-11-05T17:55:23.662Z,3.00
2022-11-05T18:00:23.585Z,3.30
2022-11-05T18:05:23.536Z,3.10
2022-11-05T18:10:23.482Z,3.10
2022-11-05T18:15:23.447Z,3.40
2022-11-05T18:20:23.379Z,3.50
2022-11-05T18:25:23.319Z,3.60
2022-11-05T18:30:23.268Z,3.60
2022-11-05T18:35:23.233Z,3.90
2022-11-05T18:40:23.162Z,3.80
2022-11-05T18:45:28.406Z,4.30
2022-11-05T18:50:24.050Z,4.10
2022-11-05T18:55:23.140Z,4.10
2022-11-05T19:00:22.958Z,4.40
2022-11-05T19:05:28.976Z,4.90
2022-11-05T19:10:23.843Z,4.90
2022-11-05T19:15:22.838Z,5.00
2022-11-05T19:20:22.741Z,4.80
2022-11-05T19:25:22.672Z,5.00
2022-11-05T19:30:22.620Z,5.10
2022-11-05T19:35:22.594Z,5.20
2022-11-05T19:40:22.504Z,5.90
2022-11-05T19:45:43.554Z,5.40
2022-11-05T19:50:23.408Z,5.90
2022-11-05T19:55:22.371Z,5.70
2022-11-05T20:00:22.299Z,6.00
2022-11-05T20:05:22.243Z,6.10
2022-11-05T20:10:22.200Z,6.60
2022-11-05T20:15:22.149Z,6.30
2022-11-05T20:20:22.087Z,6.00
2022-11-05T20:25:22.029Z,6.60
2022-11-05T20:30:21.973Z,5.80
2022-11-05T20:35:21.940Z,6.20
2022-11-05T20:40:21.865Z,6.70
2022-11-05T20:45:21.819Z,6.60
2022-11-05T20:50:21.808Z,6.90
2022-11-05T20:55:21.724Z,6.40
2022-11-05T21:00:21.647Z,6.40
2022-11-05T21:05:21.602Z,6.40
2022-11-05T21:10:21.628Z,6.40
2022-11-05T21:15:21.511Z,6.30
2022-11-05T21:20:21.431Z,6.20
2022-11-05T21:25:21.381Z,6.00
2022-11-05T21:30:21.322Z,6.30
2022-11-05T21:35:21.296Z,5.80
2022-11-05T21:40:21.225Z,7.00
2022-11-05T21:45:21.170Z,6.20
2022-11-05T21:50:22.056Z,6.40
2022-11-05T21:55:21.074Z,6.10
2022-11-05T22:00:21.003Z,6.60
2022-11-05T22:05:20.948Z,6.10
2022-11-05T22:10:20.892Z,6.50
2022-11-05T22:15:20.863Z,6.20
2022-11-05T22:20:20.792Z,5.60
2022-11-05T22:25:20.740Z,6.00
2022-11-05T22:30:20.679Z,5.80
2022-11-05T22:35:20.651Z,5.50
2022-11-05T22:40:23.873Z,5.80
2022-11-05T22:45:20.521Z,6.10
2022-11-05T22:50:20.463Z,6.20
2022-11-05T22:55:20.432Z,5.80
2022-11-05T23:00:20.359Z,6.70
2022-11-05T23:05:20.393Z,5.40
2022-11-05T23:10:20.251Z,6.30
2022-11-05T23:15:20.217Z,6.40
2022-11-05T23:20:27.180Z,6.50
2022-11-05T23:25:20.093Z,6.00
2022-11-05T23:30:20.047Z,5.50
2022-11-05T23:35:20.002Z,5.30
2022-11-05T23:40:19.932Z,5.80
2022-11-05T23:45:19.907Z,5.30
2022-11-05T23:50:19.832Z,5.80
2022-11-05T23:55:19.777Z,5.70
